Time;durP1;ratioP1;P1;durP2;ratioP2;P2;SDS_P1;SDS_P2;PMS_P1;PMS_P2;Temp;Humidity;BMP_temperature;BMP_pressure;BME280_temperature;BME280_humidity;BME280_pressure;Samples;Min_cycle;Max_cycle;Signal;HPM_P1;HPM_P2
2023/04/02 00:01:25;;;;;;;1.10;0.50;;;;;;;7.59;100.00;153308.63;5092482;28;20495;-83
2023/04/02 00:04:14;;;;;;;1.30;0.60;;;;;;;7.56;100.00;153300.88;5108677;28;20992;-82
2023/04/02 00:06:46;;;;;;;1.10;0.70;;;;;;;7.55;100.00;153298.28;5092977;28;20506;-83
2023/04/02 00:09:26;;;;;;;0.97;0.50;;;;;;;7.53;100.00;153293.13;5075291;28;20446;-83
2023/04/02 00:11:54;;;;;;;1.17;0.50;;;;;;;7.55;100.00;153298.28;5097684;28;20446;-83
2023/04/02 00:14:24;;;;;;;1.10;0.50;;;;;;;7.52;100.00;153291.81;5127324;27;20473;-82
2023/04/02 00:16:52;;;;;;;1.00;0.60;;;;;;;7.49;100.00;153282.81;5092580;28;20491;-83
2023/04/02 00:19:23;;;;;;;1.10;0.50;;;;;;;7.46;100.00;153275.06;5094225;28;20881;-83
2023/04/02 00:21:51;;;;;;;1.00;0.80;;;;;;;7.42;100.00;153264.69;5088520;28;20446;-83
2023/04/02 00:24:21;;;;;;;0.80;0.50;;;;;;;7.41;100.00;153262.16;5096008;28;20858;-82
2023/04/02 00:26:49;;;;;;;1.07;0.53;;;;;;;7.45;100.00;153272.47;5103357;28;20482;-83
2023/04/02 00:29:17;;;;;;;1.00;0.53;;;;;;;7.44;100.00;153269.91;5093571;28;20511;-82
2023/04/02 00:31:45;;;;;;;1.00;0.70;;;;;;;7.43;100.00;153267.31;5057764;28;20470;-83
2023/04/02 00:34:18;;;;;;;1.00;0.47;;;;;;;7.43;100.00;153267.31;5059687;28;20465;-83
2023/04/02 00:36:47;;;;;;;1.30;0.60;;;;;;;7.45;100.00;153272.47;5062883;28;20546;-83
2023/04/02 00:39:21;;;;;;;0.97;0.67;;;;;;;7.45;100.00;153273.75;5072729;28;20453;-82
2023/04/02 00:41:53;;;;;;;1.20;0.60;;;;;;;7.41;100.00;153262.16;5084439;28;20539;-83
2023/04/02 00:44:20;;;;;;;0.90;0.43;;;;;;;7.41;100.00;153263.44;5109253;28;20800;-83
2023/04/02 00:46:48;;;;;;;1.10;0.60;;;;;;;7.39;100.00;153258.25;5095021;28;20917;-81
2023/04/02 00:49:21;;;;;;;1.00;0.50;;;;;;;7.39;100.00;153257.00;5074322;28;20454;-81
2023/04/02 00:51:50;;;;;;;0.90;0.70;;;;;;;7.38;100.00;153255.69;5093244;28;20480;-81
2023/04/02 00:54:20;;;;;;;0.90;0.40;;;;;;;7.39;100.00;153257.00;5078377;28;20501;-81
2023/04/02 00:56:48;;;;;;;0.87;0.50;;;;;;;7.38;100.00;153254.41;5100561;28;20852;-82
2023/04/02 00:59:22;;;;;;;0.90;0.50;;;;;;;7.37;100.00;153253.09;5075121;28;20438;-82
2023/04/02 01:01:53;;;;;;;0.90;0.50;;;;;;;7.39;100.00;153257.00;5074878;28;20453;-83
2023/04/02 01:04:33;;;;;;;1.27;0.77;;;;;;;7.40;100.00;153259.53;5073624;28;20557;-83
2023/04/02 01:07:05;;;;;;;1.10;0.50;;;;;;;7.40;100.00;153260.84;5105510;28;20429;-80
2023/04/02 01:09:50;;;;;;;0.80;0.40;;;;;;;7.36;100.00;153251.78;5090616;28;20450;-83
2023/04/02 01:12:38;;;;;;;1.10;0.60;;;;;;;7.38;100.00;153254.41;5088522;28;20446;-82
2023/04/02 01:15:10;;;;;;;1.37;0.60;;;;;;;7.38;100.00;153254.41;5098045;28;20519;-82
2023/04/02 01:17:47;;;;;;;0.87;0.50;;;;;;;7.39;100.00;153257.00;5060009;28;20429;-82
2023/04/02 01:20:34;;;;;;;0.83;0.50;;;;;;;7.38;100.00;153255.69;5102985;28;20454;-82
2023/04/02 01:23:04;;;;;;;1.10;0.60;;;;;;;7.38;100.00;153255.69;5106786;28;20542;-82
2023/04/02 01:25:40;;;;;;;0.90;0.60;;;;;;;7.40;100.00;153259.53;5076979;28;20449;-82
2023/04/02 01:28:18;;;;;;;1.00;0.37;;;;;;;7.40;100.00;153259.53;5097240;28;20453;-82
2023/04/02 01:30:51;;;;;;;0.90;0.60;;;;;;;7.40;100.00;153259.53;5073194;28;20563;-83
2023/04/02 01:33:19;;;;;;;0.90;0.30;;;;;;;7.42;100.00;153264.69;5074072;28;20461;-83
2023/04/02 01:35:49;;;;;;;1.30;0.50;;;;;;;7.44;100.00;153269.91;5091612;28;20452;-82
2023/04/02 01:38:20;;;;;;;1.00;0.63;;;;;;;7.43;100.00;153268.59;5079190;28;20511;-82
2023/04/02 01:40:50;;;;;;;1.10;0.60;;;;;;;7.44;100.00;153271.16;5074283;28;20445;-83
2023/04/02 01:43:22;;;;;;;0.80;0.50;;;;;;;7.45;100.00;153273.75;5074049;28;20422;-82
2023/04/02 01:45:50;;;;;;;1.17;0.50;;;;;;;7.44;100.00;153271.16;5054254;28;20557;-82
2023/04/02 01:48:19;;;;;;;1.00;0.30;;;;;;;7.44;100.00;153269.91;5090304;28;20457;-82
2023/04/02 01:50:48;;;;;;;0.80;0.50;;;;;;;7.43;100.00;153267.31;5074086;28;20436;-82
2023/04/02 01:53:17;;;;;;;1.87;1.17;;;;;;;7.44;100.00;153269.91;5076054;28;20871;-82
2023/04/02 01:55:45;;;;;;;0.80;0.53;;;;;;;7.45;100.00;153272.47;5081782;28;20477;-82
2023/04/02 01:58:13;;;;;;;0.80;0.47;;;;;;;7.43;100.00;153267.31;5094131;28;20446;-83
2023/04/02 02:00:47;;;;;;;0.80;0.50;;;;;;;7.41;100.00;153262.16;5094902;28;20536;-83
2023/04/02 02:03:15;;;;;;;1.37;0.50;;;;;;;7.44;100.00;153269.91;5066797;28;20431;-82
2023/04/02 02:05:43;;;;;;;1.10;0.57;;;;;;;7.45;100.00;153272.47;5094723;28;20910;-82
2023/04/02 02:08:29;;;;;;;0.90;0.47;;;;;;;7.45;100.00;153272.47;5094199;28;20422;-82
2023/04/02 02:10:57;;;;;;;1.23;0.70;;;;;;;7.41;100.00;153263.44;5064797;28;20891;-82
2023/04/02 02:13:24;;;;;;;1.30;0.60;;;;;;;7.43;100.00;153267.31;5095083;28;20537;-82
2023/04/02 02:15:51;;;;;;;1.30;0.67;;;;;;;7.44;100.00;153271.16;5060960;28;20528;-82
2023/04/02 02:18:22;;;;;;;2.20;0.67;;;;;;;7.43;100.00;153267.31;5079073;28;20487;-82
2023/04/02 02:20:49;;;;;;;1.73;0.67;;;;;;;7.43;100.00;153267.31;5058791;28;20445;-82
2023/04/02 02:23:16;;;;;;;1.10;0.50;;;;;;;7.41;100.00;153262.16;5093729;28;20437;-83
2023/04/02 02:25:44;;;;;;;0.80;0.50;;;;;;;7.42;100.00;153266.00;5073832;28;20458;-83
2023/04/02 02:28:15;;;;;;;1.43;0.60;;;;;;;7.42;100.00;153264.69;5086731;28;20540;-82
2023/04/02 02:30:44;;;;;;;0.90;0.43;;;;;;;7.42;100.00;153266.00;5094787;28;20530;-82
2023/04/02 02:33:16;;;;;;;0.83;0.50;;;;;;;7.39;100.00;153258.25;5060477;28;20469;-83
2023/04/02 02:35:48;;;;;;;0.90;0.57;;;;;;;7.41;100.00;153263.44;5111329;28;20449;-83
2023/04/02 02:38:50;;;;;;;0.70;0.40;;;;;;;7.42;100.00;153264.69;5110464;27;20432;-82
2023/04/02 02:41:30;;;;;;;0.90;0.57;;;;;;;7.42;100.00;153266.00;5022619;28;20962;-82
2023/04/02 02:44:02;;;;;;;3.40;0.80;;;;;;;7.44;100.00;153269.91;5093501;28;20955;-82
2023/04/02 02:46:30;;;;;;;1.00;0.60;;;;;;;7.44;100.00;153269.91;5080896;28;20816;-83
2023/04/02 02:48:58;;;;;;;1.67;0.63;;;;;;;7.45;100.00;153272.47;5060098;28;20436;-82
2023/04/02 02:51:29;;;;;;;1.00;0.63;;;;;;;7.42;100.00;153264.69;5059987;28;20467;-82
2023/04/02 02:54:00;;;;;;;1.37;0.50;;;;;;;7.41;100.00;153262.16;5076143;28;20554;-83
2023/04/02 02:56:28;;;;;;;0.87;0.57;;;;;;;7.40;100.00;153259.53;5113290;27;20456;-82
2023/04/02 02:58:55;;;;;;;1.23;0.67;;;;;;;7.40;100.00;153260.84;5093121;28;20846;-82
2023/04/02 03:01:28;;;;;;;1.17;0.57;;;;;;;7.38;100.00;153255.69;5060264;28;20546;-83
2023/04/02 03:03:55;;;;;;;2.23;0.60;;;;;;;7.42;100.00;153264.69;5091815;28;20498;-82
2023/04/02 03:06:24;;;;;;;1.50;0.80;;;;;;;7.41;100.00;153262.16;5059409;28;20457;-83
2023/04/02 03:09:02;;;;;;;1.40;0.70;;;;;;;7.40;100.00;153259.53;5093338;28;20454;-82
2023/04/02 03:11:36;;;;;;;1.00;0.63;;;;;;;7.38;100.00;153254.41;5060246;28;20856;-83
2023/04/02 03:14:20;;;;;;;1.23;0.73;;;;;;;7.39;100.00;153258.25;5092945;28;20465;-82
2023/04/02 03:16:49;;;;;;;1.07;0.70;;;;;;;7.41;100.00;153262.16;5068438;28;20449;-82
2023/04/02 03:19:25;;;;;;;1.30;1.00;;;;;;;7.40;100.00;153259.53;5092838;28;20445;-82
2023/04/02 03:21:55;;;;;;;0.97;0.60;;;;;;;7.41;100.00;153262.16;5075985;28;20441;-83
2023/04/02 03:24:32;;;;;;;1.30;0.70;;;;;;;7.42;100.00;153266.00;5058742;28;20425;-82
2023/04/02 03:27:03;;;;;;;1.27;0.80;;;;;;;7.43;100.00;153267.31;5084686;28;20446;-83
2023/04/02 03:29:32;;;;;;;1.17;0.80;;;;;;;7.40;100.00;153259.53;5059600;28;20438;-82
2023/04/02 03:32:02;;;;;;;1.20;1.03;;;;;;;7.41;100.00;153262.16;5093548;28;20469;-83
2023/04/02 03:34:33;;;;;;;1.27;0.67;;;;;;;7.40;100.00;153259.53;5074728;28;20828;-83
2023/04/02 03:37:06;;;;;;;1.40;0.90;;;;;;;7.43;100.00;153268.59;5056341;28;20544;-82
2023/04/02 03:39:37;;;;;;;1.13;0.77;;;;;;;7.44;100.00;153271.16;5092221;28;20525;-82
2023/04/02 03:42:07;;;;;;;2.00;0.90;;;;;;;7.42;100.00;153266.00;5092712;28;20824;-83
2023/04/02 03:44:38;;;;;;;1.27;0.80;;;;;;;7.42;100.00;153266.00;5070306;28;20450;-82
2023/04/02 03:47:11;;;;;;;1.47;0.97;;;;;;;7.45;100.00;153273.75;5108766;27;20497;-82
2023/04/02 03:49:43;;;;;;;2.33;0.87;;;;;;;7.44;100.00;153269.91;5077587;28;20440;-82
2023/04/02 03:52:11;;;;;;;1.50;0.90;;;;;;;7.41;100.00;153262.16;5058381;28;20426;-83
2023/04/02 03:54:41;;;;;;;2.00;0.90;;;;;;;7.41;100.00;153262.16;5074479;28;20474;-82
2023/04/02 03:57:12;;;;;;;1.80;1.17;;;;;;;7.44;100.00;153269.91;5105342;27;20453;-82
2023/04/02 03:59:44;;;;;;;1.40;0.90;;;;;;;7.42;100.00;153266.00;5072879;28;20518;-82
2023/04/02 04:02:18;;;;;;;1.10;0.87;;;;;;;7.45;100.00;153273.75;5066317;28;20422;-82
2023/04/02 04:04:47;;;;;;;2.00;0.80;;;;;;;7.47;100.00;153277.63;5089592;28;20437;-82
2023/04/02 04:07:21;;;;;;;0.90;0.60;;;;;;;7.47;100.00;153277.63;5075171;28;20461;-82
2023/04/02 04:09:52;;;;;;;1.97;0.83;;;;;;;7.45;100.00;153272.47;5111008;27;20456;-82
2023/04/02 04:12:26;;;;;;;1.40;1.03;;;;;;;7.43;100.00;153267.31;5092893;28;20442;-82
2023/04/02 04:14:56;;;;;;;3.43;1.10;;;;;;;7.41;100.00;153262.16;5090685;28;20457;-83
2023/04/02 04:17:28;;;;;;;1.27;0.90;;;;;;;7.42;100.00;153264.69;5093176;28;20523;-82
2023/04/02 04:20:01;;;;;;;3.93;1.00;;;;;;;7.43;100.00;153267.31;5061209;28;20958;-82
2023/04/02 04:22:30;;;;;;;1.70;1.10;;;;;;;7.43;100.00;153267.31;5091443;28;20637;-82
2023/04/02 04:25:08;;;;;;;1.23;1.07;;;;;;;7.40;100.00;153260.84;5094466;28;20449;-82
2023/04/02 04:27:41;;;;;;;2.50;0.90;;;;;;;7.41;100.00;153262.16;5070043;28;20527;-82
2023/04/02 04:30:17;;;;;;;1.07;0.67;;;;;;;7.38;100.00;153254.41;5057838;28;20473;-83
2023/04/02 04:32:49;;;;;;;1.40;1.00;;;;;;;7.38;100.00;153255.69;5107377;28;20912;-81
2023/04/02 04:35:23;;;;;;;1.90;1.20;;;;;;;7.41;100.00;153262.16;5091066;28;20472;-81
2023/04/02 04:37:57;;;;;;;2.07;1.03;;;;;;;7.38;100.00;153254.41;5078426;28;20454;-81
2023/04/02 04:40:28;;;;;;;2.13;1.17;;;;;;;7.34;100.00;153246.63;5091076;28;20453;-82
2023/04/02 04:43:00;;;;;;;1.50;1.20;;;;;;;7.34;100.00;153246.63;5074522;28;20418;-82
2023/04/02 04:45:37;;;;;;;1.30;0.93;;;;;;;7.34;100.00;153246.63;5057041;28;20434;-82
2023/04/02 04:48:08;;;;;;;2.90;1.33;;;;;;;7.33;100.00;153244.03;5059660;28;20531;-82
2023/04/02 04:50:39;;;;;;;1.60;1.20;;;;;;;7.33;100.00;153244.03;5092236;28;20491;-82
2023/04/02 04:53:07;;;;;;;1.97;1.30;;;;;;;7.31;100.00;153238.88;5064716;28;20955;-82
2023/04/02 04:55:38;;;;;;;1.60;1.10;;;;;;;7.33;100.00;153244.03;5100891;27;20560;-82
2023/04/02 04:58:14;;;;;;;1.60;1.00;;;;;;;7.30;100.00;153236.34;5074426;28;20430;-81
2023/04/02 05:00:51;;;;;;;1.40;0.97;;;;;;;7.33;100.00;153244.03;5071437;28;20453;-81
2023/04/02 05:03:26;;;;;;;1.23;0.70;;;;;;;7.32;100.00;153240.19;5092824;28;20523;-81
2023/04/02 05:05:54;;;;;;;1.60;1.10;;;;;;;7.29;100.00;153232.44;5098538;28;20536;-82
2023/04/02 05:08:25;;;;;;;1.30;0.90;;;;;;;7.30;100.00;153236.34;5064454;28;20455;-83
2023/04/02 05:10:57;;;;;;;1.70;0.97;;;;;;;7.32;100.00;153241.47;5052520;28;20449;-82
2023/04/02 05:13:28;;;;;;;2.03;1.10;;;;;;;7.32;100.00;153240.19;5095468;28;20454;-83
2023/04/02 05:16:03;;;;;;;1.23;1.00;;;;;;;7.28;100.00;153231.13;5100449;28;20457;-82
2023/04/02 05:18:34;;;;;;;1.40;0.97;;;;;;;7.30;100.00;153236.34;5080465;28;20441;-82
2023/04/02 05:21:06;;;;;;;1.30;1.00;;;;;;;7.32;100.00;153240.19;5081366;28;20453;-82
2023/04/02 05:23:35;;;;;;;1.67;1.23;;;;;;;7.32;100.00;153241.47;5113861;27;20456;-82
2023/04/02 05:26:06;;;;;;;1.80;1.33;;;;;;;7.31;100.00;153238.88;5079428;28;20457;-82
2023/04/02 05:28:40;;;;;;;1.70;1.10;;;;;;;7.30;100.00;153235.03;5064793;28;20456;-81
2023/04/02 05:31:12;;;;;;;2.53;1.00;;;;;;;7.32;100.00;153240.19;5080850;28;20558;-81
2023/04/02 05:33:40;;;;;;;2.00;1.40;;;;;;;7.31;100.00;153237.59;5078134;28;20450;-81
2023/04/02 05:36:11;;;;;;;1.23;0.90;;;;;;;7.31;100.00;153238.88;5078012;28;20453;-82
2023/04/02 05:38:47;;;;;;;1.53;1.10;;;;;;;7.32;100.00;153241.47;5079569;28;20442;-82
2023/04/02 05:41:25;;;;;;;1.30;1.10;;;;;;;7.34;100.00;153246.63;5113210;28;20731;-82
2023/04/02 05:43:58;;;;;;;1.67;1.30;;;;;;;7.35;100.00;153249.25;5096690;28;20517;-81
2023/04/02 05:46:28;;;;;;;3.20;1.00;;;;;;;7.35;100.00;153249.25;5082369;28;20444;-82
2023/04/02 05:48:57;;;;;;;1.27;1.10;;;;;;;7.34;100.00;153246.63;5061468;28;20940;-82
2023/04/02 05:51:29;;;;;;;1.50;1.10;;;;;;;7.37;100.00;153253.09;5112340;28;20449;-82
2023/04/02 05:53:58;;;;;;;1.30;1.20;;;;;;;7.40;100.00;153260.84;5061373;28;20461;-82
2023/04/02 05:56:31;;;;;;;1.80;1.23;;;;;;;7.43;100.00;153267.31;5081157;28;20448;-82
2023/04/02 05:59:06;;;;;;;1.47;1.00;;;;;;;7.44;100.00;153269.91;5132881;27;20436;-81
2023/04/02 06:01:40;;;;;;;1.30;0.90;;;;;;;7.44;100.00;153271.16;5095705;28;20469;-82
2023/04/02 06:04:18;;;;;;;1.43;1.10;;;;;;;7.44;100.00;153271.16;5112283;28;20540;-81
2023/04/02 06:06:49;;;;;;;1.40;1.13;;;;;;;7.48;100.00;153280.22;5129207;27;20441;-82
2023/04/02 06:09:21;;;;;;;1.37;0.97;;;;;;;7.47;100.00;153277.63;5078795;28;20453;-82
2023/04/02 06:11:54;;;;;;;1.57;1.30;;;;;;;7.45;100.00;153273.75;5095420;28;20450;-81
2023/04/02 06:14:21;;;;;;;2.20;1.30;;;;;;;7.46;100.00;153275.06;5096552;28;20914;-81
2023/04/02 06:16:48;;;;;;;2.43;1.47;;;;;;;7.48;100.00;153281.50;5058972;28;20536;-81
2023/04/02 06:19:20;;;;;;;1.57;1.23;;;;;;;7.50;100.00;153285.38;5063536;28;20544;-81
2023/04/02 06:21:49;;;;;;;2.60;1.40;;;;;;;7.52;100.00;153290.56;5099057;28;20455;-83
2023/04/02 06:24:20;;;;;;;3.03;1.60;;;;;;;7.55;100.00;153298.28;5062997;28;20441;-82
2023/04/02 06:26:51;;;;;;;1.90;1.70;;;;;;;7.57;100.00;153303.47;5063162;28;20452;-82
2023/04/02 06:29:24;;;;;;;2.00;1.70;;;;;;;7.61;100.00;153313.78;5078476;28;20473;-81
2023/04/02 06:31:54;;;;;;;2.50;1.40;;;;;;;7.61;100.00;153313.78;5076802;28;20865;-81
2023/04/02 06:34:24;;;;;;;2.20;1.70;;;;;;;7.62;100.00;153316.41;5097046;28;20940;-81
2023/04/02 06:37:17;;;;;;;2.03;1.50;;;;;;;7.61;100.00;153313.78;5096638;28;20461;-81
2023/04/02 06:39:44;;;;;;;2.20;1.70;;;;;;;7.62;100.00;153317.69;5085074;28;20547;-81
2023/04/02 06:42:18;;;;;;;1.90;1.70;;;;;;;7.64;100.00;153321.56;5100542;28;20441;-81
2023/04/02 06:45:00;;;;;;;1.90;1.70;;;;;;;7.66;100.00;153326.72;5116078;27;20452;-81
2023/04/02 06:47:50;;;;;;;2.03;1.23;;;;;;;7.69;100.00;153334.47;5083210;28;20546;-82
2023/04/02 06:50:30;;;;;;;2.33;1.50;;;;;;;7.70;100.00;153337.06;5085072;28;20452;-81
2023/04/02 06:52:59;;;;;;;1.77;1.47;;;;;;;7.72;100.00;153342.22;5081892;28;20483;-82
2023/04/02 06:55:33;;;;;;;2.30;1.90;;;;;;;7.71;100.00;153339.63;5069782;28;20570;-81
2023/04/02 06:58:01;;;;;;;2.50;1.93;;;;;;;7.76;100.00;153352.53;5083001;28;20440;-81
2023/04/02 07:00:35;;;;;;;1.83;1.40;;;;;;;7.77;100.00;153355.13;5133776;27;20457;-81
2023/04/02 07:03:06;;;;;;;1.50;1.37;;;;;;;7.79;100.00;153361.59;5073198;28;20455;-82
2023/04/02 07:05:33;;;;;;;2.17;1.60;;;;;;;7.81;100.00;153366.75;5083457;28;20460;-82
2023/04/02 07:08:00;;;;;;;1.70;1.30;;;;;;;7.87;100.00;153380.97;5113022;27;20484;-81
2023/04/02 07:10:26;;;;;;;2.30;1.60;;;;;;;7.89;100.00;153387.41;5114170;27;20455;-81
2023/04/02 07:12:53;;;;;;;2.47;1.90;;;;;;;7.89;100.00;153386.13;5117182;27;20459;-81
2023/04/02 07:15:24;;;;;;;1.80;1.57;;;;;;;7.93;100.00;153396.47;5117698;27;20479;-81
2023/04/02 07:17:52;;;;;;;1.63;1.30;;;;;;;7.93;100.00;153397.78;5083222;28;20454;-81
2023/04/02 07:20:25;;;;;;;2.90;1.57;;;;;;;7.98;100.00;153409.41;5098644;28;20456;-82
2023/04/02 07:22:53;;;;;;;2.50;1.67;;;;;;;8.01;100.00;153417.16;5081475;28;20444;-82
2023/04/02 07:25:19;;;;;;;2.33;1.53;;;;;;;8.06;100.00;153430.06;5079293;28;20446;-81
2023/04/02 07:27:46;;;;;;;1.53;1.43;;;;;;;8.13;100.00;153446.88;5064450;28;20453;-82
2023/04/02 07:30:13;;;;;;;2.60;1.53;;;;;;;8.16;100.00;153454.59;5080881;28;20483;-82
2023/04/02 07:32:41;;;;;;;1.67;1.40;;;;;;;8.19;100.00;153463.66;5081904;28;20978;-82
2023/04/02 07:35:10;;;;;;;2.30;1.63;;;;;;;8.22;100.00;153470.13;5133600;27;20504;-81
2023/04/02 07:37:37;;;;;;;2.40;1.90;;;;;;;8.26;100.00;153481.75;5067213;28;20804;-82
2023/04/02 07:40:07;;;;;;;3.47;2.27;;;;;;;8.28;100.00;153487.00;5099161;28;20445;-82
2023/04/02 07:42:35;;;;;;;2.40;1.87;;;;;;;8.28;100.00;153487.00;5098925;28;20552;-81
2023/04/02 07:45:01;;;;;;;3.20;1.50;;;;;;;8.36;100.00;153506.38;5083874;28;20452;-82
2023/04/02 07:47:29;;;;;;;2.10;1.63;;;;;;;8.37;100.00;153508.94;5117019;27;20441;-82
2023/04/02 07:49:57;;;;;;;3.10;1.57;;;;;;;8.38;100.00;153512.84;5115302;27;20827;-82
2023/04/02 07:52:24;;;;;;;2.13;1.30;;;;;;;8.41;100.00;153520.59;5081500;28;20455;-82
2023/04/02 07:54:51;;;;;;;2.20;1.43;;;;;;;8.42;100.00;153523.16;5114478;27;20893;-82
2023/04/02 07:57:17;;;;;;;2.00;1.30;;;;;;;8.44;100.00;153528.34;5099036;28;20483;-82
2023/04/02 07:59:45;;;;;;;1.50;1.20;;;;;;;8.52;100.00;153547.75;5096732;28;20449;-82
2023/04/02 08:02:19;;;;;;;1.60;1.00;;;;;;;8.51;100.00;153546.44;5049770;28;20959;-82
2023/04/02 08:04:46;;;;;;;1.97;1.60;;;;;;;8.56;100.00;153559.38;5112225;27;20428;-82
2023/04/02 08:07:14;;;;;;;1.60;1.30;;;;;;;8.61;100.00;153570.97;5115402;27;20481;-82
2023/04/02 08:09:41;;;;;;;2.20;1.57;;;;;;;8.62;100.00;153572.28;5078539;28;20482;-81
2023/04/02 08:12:07;;;;;;;1.93;1.73;;;;;;;8.63;100.00;153574.88;5067821;28;20539;-81
2023/04/02 08:14:34;;;;;;;1.60;1.27;;;;;;;8.70;100.00;153594.28;5081267;28;20449;-81
2023/04/02 08:17:01;;;;;;;1.87;1.20;;;;;;;8.74;100.00;153604.59;5097831;28;20918;-81
2023/04/02 08:19:28;;;;;;;1.37;1.10;;;;;;;8.75;100.00;153605.91;5097375;28;20704;-81
2023/04/02 08:21:55;;;;;;;1.53;1.20;;;;;;;8.78;100.00;153613.66;5113324;27;20502;-81
2023/04/02 08:24:23;;;;;;;1.60;1.20;;;;;;;8.74;100.00;153603.28;5082905;28;20519;-81
2023/04/02 08:26:52;;;;;;;1.60;1.43;;;;;;;8.74;100.00;153604.59;5115531;27;20869;-82
2023/04/02 08:29:19;;;;;;;1.40;0.90;;;;;;;8.79;100.00;153616.25;5110504;27;20452;-81
2023/04/02 08:31:45;;;;;;;2.53;1.17;;;;;;;8.84;100.00;153629.19;5112821;27;20472;-81
2023/04/02 08:34:12;;;;;;;2.50;1.40;;;;;;;8.82;100.00;153623.97;5065091;28;20799;-81
2023/04/02 08:36:41;;;;;;;2.43;1.30;;;;;;;8.81;100.00;153621.41;5079698;28;21640;-81
2023/04/02 08:39:10;;;;;;;1.77;1.27;;;;;;;8.87;100.00;153636.94;5130279;27;20485;-82
2023/04/02 08:41:43;;;;;;;1.43;1.10;;;;;;;8.94;100.00;153656.34;5098000;28;20497;-82
2023/04/02 08:44:20;;;;;;;1.30;0.90;;;;;;;9.02;100.00;153675.72;5114064;27;20779;-82
2023/04/02 08:46:51;;;;;;;1.70;1.50;;;;;;;8.98;100.00;153665.34;5081777;28;20495;-82
2023/04/02 08:49:21;;;;;;;1.50;1.03;;;;;;;9.01;100.00;153674.44;5096425;28;20532;-82
2023/04/02 08:51:48;;;;;;;2.60;0.97;;;;;;;9.04;100.00;153680.88;5114366;27;20451;-82
2023/04/02 08:54:20;;;;;;;1.77;1.20;;;;;;;9.06;100.00;153686.06;5112863;27;20926;-82
2023/04/02 08:56:52;;;;;;;1.50;1.10;;;;;;;9.05;100.00;153683.50;5051323;28;20578;-82
2023/04/02 08:59:24;;;;;;;1.70;1.10;;;;;;;9.03;100.00;153679.59;5062653;28;20445;-83
2023/04/02 09:01:54;;;;;;;1.70;1.07;;;;;;;9.07;100.00;153688.66;5079878;28;20475;-82
2023/04/02 09:04:23;;;;;;;2.20;1.50;;;;;;;9.06;100.00;153686.06;5112749;27;20445;-82
2023/04/02 09:06:52;;;;;;;3.47;2.30;;;;;;;9.10;100.00;153696.41;5113635;27;20448;-83
2023/04/02 09:09:20;;;;;;;2.83;1.60;;;;;;;9.13;100.00;153705.44;5064968;28;20448;-82
2023/04/02 09:11:52;;;;;;;1.53;1.10;;;;;;;9.13;100.00;153704.19;5079589;28;20450;-82
2023/04/02 09:14:20;;;;;;;1.97;1.40;;;;;;;9.13;100.00;153705.44;5080356;28;20527;-82
2023/04/02 09:16:49;;;;;;;2.07;1.60;;;;;;;9.18;100.00;153718.41;5081540;28;20468;-82
2023/04/02 09:19:19;;;;;;;2.17;1.80;;;;;;;9.11;100.00;153698.97;5111573;27;20517;-82
2023/04/02 09:21:53;;;;;;;1.53;1.27;;;;;;;9.00;100.00;153670.56;5112840;27;20537;-83
2023/04/02 09:24:20;;;;;;;2.27;2.07;;;;;;;8.94;100.00;153655.03;5111657;27;20433;-82
2023/04/02 09:26:47;;;;;;;2.00;1.77;;;;;;;8.92;100.00;153651.13;5099986;28;20440;-83
2023/04/02 09:29:36;;;;;;;2.00;1.80;;;;;;;8.91;100.00;153648.56;5079455;28;20806;-82
2023/04/02 09:32:12;;;;;;;2.33;1.63;;;;;;;8.93;100.00;153652.44;5096568;28;20474;-82
2023/04/02 09:34:39;;;;;;;2.50;2.07;;;;;;;8.94;100.00;153655.03;5063390;28;20776;-82
2023/04/02 09:37:07;;;;;;;2.77;2.00;;;;;;;8.92;100.00;153649.88;5113182;28;20814;-82
2023/04/02 09:39:35;;;;;;;2.70;1.73;;;;;;;8.95;100.00;153657.59;5071715;28;20507;-82
2023/04/02 09:42:07;;;;;;;2.70;1.90;;;;;;;9.02;100.00;153675.72;5059483;28;20808;-82
2023/04/02 09:44:35;;;;;;;2.10;1.67;;;;;;;9.04;100.00;153680.88;5096367;28;20809;-82
2023/04/02 09:47:05;;;;;;;3.40;1.67;;;;;;;9.02;100.00;153677.03;5115190;28;20444;-82
2023/04/02 09:49:33;;;;;;;2.23;1.50;;;;;;;9.06;100.00;153686.06;5097891;28;20472;-83
2023/04/02 09:52:19;;;;;;;2.70;1.67;;;;;;;9.00;100.00;153671.81;5080384;28;20531;-82
2023/04/02 09:54:46;;;;;;;1.80;1.40;;;;;;;8.98;100.00;153665.34;5111537;28;20459;-82
2023/04/02 09:57:22;;;;;;;1.80;1.20;;;;;;;9.01;100.00;153673.13;5097383;28;20479;-82
2023/04/02 10:00:16;;;;;;;1.40;1.17;;;;;;;8.99;100.00;153667.97;5079257;28;20440;-82
2023/04/02 10:02:44;;;;;;;1.60;1.30;;;;;;;9.01;100.00;153674.44;5097243;28;20545;-82
2023/04/02 10:05:18;;;;;;;2.37;1.40;;;;;;;9.02;100.00;153675.72;5063122;28;20450;-83
2023/04/02 10:07:47;;;;;;;1.90;1.30;;;;;;;9.04;100.00;153682.19;5100188;28;20447;-82
2023/04/02 10:10:20;;;;;;;2.43;1.60;;;;;;;9.06;100.00;153686.06;5081046;28;20524;-82
2023/04/02 10:12:49;;;;;;;2.00;1.57;;;;;;;9.13;100.00;153705.44;5112883;28;20445;-82
2023/04/02 10:15:22;;;;;;;2.10;1.67;;;;;;;9.13;100.00;153704.19;5098664;28;20475;-82
2023/04/02 10:17:54;;;;;;;1.87;1.60;;;;;;;9.12;100.00;153701.59;5115865;27;20449;-83
2023/04/02 10:20:24;;;;;;;1.77;1.17;;;;;;;9.22;100.00;153726.13;5067619;28;20540;-82
2023/04/02 10:22:51;;;;;;;2.63;1.63;;;;;;;9.26;100.00;153737.81;5050754;28;20459;-83
2023/04/02 10:25:20;;;;;;;1.47;1.37;;;;;;;9.25;100.00;153733.91;5097060;28;20475;-82
2023/04/02 10:27:51;;;;;;;1.40;1.17;;;;;;;9.25;100.00;153735.22;5097084;28;20464;-83
2023/04/02 10:30:22;;;;;;;2.03;1.40;;;;;;;9.26;100.00;153737.81;5099735;28;20485;-83
2023/04/02 10:32:52;;;;;;;2.07;1.50;;;;;;;9.29;100.00;153745.59;5099762;28;20451;-82
2023/04/02 10:35:28;;;;;;;1.73;1.20;;;;;;;9.24;100.00;153731.34;5083614;28;20540;-82
2023/04/02 10:38:20;;;;;;;1.40;0.90;;;;;;;9.32;100.00;153753.31;5065011;28;20471;-82
2023/04/02 10:40:49;;;;;;;0.93;0.60;;;;;;;9.35;98.81;153761.06;5115613;27;20455;-82
2023/04/02 10:43:39;;;;;;;1.30;0.90;;;;;;;9.33;99.51;153755.91;5112615;27;20961;-83
2023/04/02 10:46:12;;;;;;;1.10;0.70;;;;;;;9.34;100.00;153758.50;5101770;28;20444;-83
2023/04/02 10:48:43;;;;;;;1.20;0.87;;;;;;;9.30;100.00;153748.13;5079671;28;20441;-83
2023/04/02 10:51:17;;;;;;;1.40;0.93;;;;;;;9.31;99.94;153750.75;5113048;27;20890;-82
2023/04/02 10:53:48;;;;;;;1.17;0.90;;;;;;;9.38;100.00;153768.84;5084881;28;20532;-82
2023/04/02 10:56:15;;;;;;;1.90;1.20;;;;;;;9.50;100.00;153798.59;5086276;28;20473;-83
2023/04/02 10:58:47;;;;;;;1.93;1.10;;;;;;;9.48;100.00;153793.41;5081219;28;20449;-82
2023/04/02 11:01:19;;;;;;;2.03;1.20;;;;;;;9.48;100.00;153794.69;5100417;28;20697;-83
2023/04/02 11:03:48;;;;;;;1.30;1.00;;;;;;;9.48;100.00;153794.69;5100600;28;20432;-82
2023/04/02 11:06:18;;;;;;;1.60;1.23;;;;;;;9.51;100.00;153802.47;5049462;28;20815;-83
2023/04/02 11:08:46;;;;;;;1.40;1.10;;;;;;;9.52;100.00;153803.78;5098819;28;20444;-82
2023/04/02 11:11:16;;;;;;;1.20;0.90;;;;;;;9.51;100.00;153802.47;5082140;28;20549;-83
2023/04/02 11:13:50;;;;;;;1.30;0.80;;;;;;;9.50;100.00;153799.91;5100785;28;20464;-83
2023/04/02 11:16:18;;;;;;;1.77;1.23;;;;;;;9.51;98.72;153802.47;5116633;27;20476;-83
2023/04/02 11:19:15;;;;;;;1.30;0.90;;;;;;;9.49;99.98;153796.00;5083398;28;20454;-83
2023/04/02 11:21:42;;;;;;;1.20;0.90;;;;;;;9.50;100.00;153798.59;5114472;27;20785;-83
2023/04/02 11:24:25;;;;;;;1.83;1.30;;;;;;;9.58;100.00;153820.56;5068508;28;20464;-82
2023/04/02 11:26:52;;;;;;;1.77;0.97;;;;;;;9.64;100.00;153836.09;5116311;27;20449;-82
2023/04/02 11:29:22;;;;;;;2.17;1.53;;;;;;;9.63;100.00;153833.53;5115527;27;20426;-82
2023/04/02 11:31:51;;;;;;;2.40;1.50;;;;;;;9.67;100.00;153843.88;5099806;28;20800;-82
2023/04/02 11:34:52;;;;;;;1.93;1.30;;;;;;;9.66;100.00;153841.25;5097827;28;20446;-82
2023/04/02 11:37:33;;;;;;;2.13;1.47;;;;;;;9.69;100.00;153849.03;5071325;28;20468;-82
2023/04/02 11:40:04;;;;;;;2.53;2.20;;;;;;;9.67;100.00;153842.56;5113297;27;20844;-82
2023/04/02 11:42:32;;;;;;;3.50;2.70;;;;;;;9.71;100.00;153854.25;5095977;28;20437;-82
2023/04/02 11:45:02;;;;;;;2.80;1.80;;;;;;;9.71;100.00;153852.94;5080623;28;20901;-82